Time;durP1;ratioP1;P1;durP2;ratioP2;P2;SDS_P1;SDS_P2;PMS_P1;PMS_P2;Temp;Humidity;BMP_temperature;BMP_pressure;BME280_temperature;BME280_humidity;BME280_pressure;Samples;Min_cycle;Max_cycle;Signal;HPM_P1;HPM_P2
2022/10/28 00:02:47;;;;;;;1.35;1.15;;;20.40;62.30;;;;;;6295916;28;20029;-69
2022/10/28 00:05:48;;;;;;;1.77;1.27;;;20.40;63.20;;;;;;6293245;28;20522;-70
2022/10/28 00:08:49;;;;;;;1.63;1.15;;;20.40;62.30;;;;;;6293425;28;20032;-70
2022/10/28 00:11:49;;;;;;;2.00;1.30;;;20.40;62.30;;;;;;6292424;28;20070;-69
2022/10/28 00:14:50;;;;;;;1.55;1.20;;;20.40;62.40;;;;;;6293358;28;20209;-70
2022/10/28 00:17:51;;;;;;;1.60;1.20;;;20.40;62.30;;;;;;6293169;28;20318;-69
2022/10/28 00:20:51;;;;;;;1.73;1.27;;;20.40;62.30;;;;;;6293365;28;20032;-69
2022/10/28 00:23:53;;;;;;;1.77;1.10;;;20.40;62.40;;;;;;6292749;28;20021;-70
2022/10/28 00:26:53;;;;;;;2.15;1.17;;;20.40;62.40;;;;;;6293325;28;20033;-70
2022/10/28 00:29:54;;;;;;;1.85;1.30;;;20.40;62.40;;;;;;6292835;28;20424;-70
2022/10/28 00:32:55;;;;;;;2.28;1.35;;;20.40;62.30;;;;;;6292997;28;20074;-69
2022/10/28 00:35:55;;;;;;;1.33;1.15;;;20.40;62.30;;;;;;6292754;28;20101;-70
2022/10/28 00:38:57;;;;;;;2.08;1.30;;;20.40;62.30;;;;;;6292542;28;20032;-70
2022/10/28 00:42:02;;;;;;;1.33;1.13;;;20.40;62.20;;;;;;6292181;28;20105;-69
2022/10/28 00:45:04;;;;;;;1.98;1.20;;;20.40;62.30;;;;;;6292460;28;20028;-70
2022/10/28 00:48:05;;;;;;;1.92;1.50;;;20.40;62.30;;;;;;6292662;28;20097;-69
2022/10/28 00:51:08;;;;;;;1.35;1.00;;;20.40;62.30;;;;;;6292302;28;20073;-69
2022/10/28 00:54:10;;;;;;;1.48;1.00;;;20.40;62.30;;;;;;6291731;28;20060;-70
2022/10/28 00:57:15;;;;;;;1.30;1.10;;;20.40;62.40;;;;;;6292262;28;20025;-70
2022/10/28 01:00:16;;;;;;;;;;;20.40;62.30;;;;;;6292673;28;20039;-69
2022/10/28 01:03:17;;;;;;;2.13;1.20;;;20.40;62.30;;;;;;6292598;28;19904;-70
2022/10/28 01:06:18;;;;;;;3.15;1.27;;;20.40;62.30;;;;;;6292351;28;20027;-69
2022/10/28 01:09:19;;;;;;;1.27;1.00;;;20.40;62.30;;;;;;6292009;28;20028;-69
2022/10/28 01:12:32;;;;;;;1.40;1.17;;;20.40;62.30;;;;;;6292048;28;20103;-70
2022/10/28 01:15:57;;;;;;;1.20;1.00;;;20.40;62.20;;;;;;6292182;28;20348;-70
2022/10/28 01:19:16;;;;;;;1.65;1.23;;;20.40;62.30;;;;;;6291724;28;20352;-69
2022/10/28 01:22:33;;;;;;;1.92;1.10;;;20.40;62.30;;;;;;6291640;28;20021;-69
2022/10/28 01:25:54;;;;;;;1.75;1.15;;;20.40;62.30;;;;;;6290882;28;20491;-69
2022/10/28 01:29:15;;;;;;;2.55;1.40;;;20.40;62.30;;;;;;6291608;28;20066;-69
2022/10/28 01:32:48;;;;;;;1.63;1.20;;;20.40;62.40;;;;;;6291586;28;20025;-70
2022/10/28 01:35:53;;;;;;;1.10;0.90;;;20.40;62.30;;;;;;6281900;28;20135;-69
2022/10/28 01:39:14;;;;;;;1.45;0.90;;;20.40;62.40;;;;;;6307623;28;20024;-69
2022/10/28 01:42:26;;;;;;;1.10;0.98;;;20.40;62.30;;;;;;6291446;28;20419;-70
2022/10/28 01:45:54;;;;;;;1.45;1.08;;;20.40;63.20;;;;;;6291643;28;20021;-70
2022/10/28 01:49:01;;;;;;;1.77;0.90;;;20.40;62.40;;;;;;6291124;28;20035;-69
2022/10/28 01:52:07;;;;;;;1.02;0.95;;;20.40;62.30;;;;;;6291477;28;20084;-69
2022/10/28 01:55:17;;;;;;;1.20;0.90;;;20.40;62.30;;;;;;6291505;28;20041;-70
2022/10/28 01:58:22;;;;;;;1.38;0.95;;;20.40;62.40;;;;;;6291503;28;20024;-70
2022/10/28 02:01:23;;;;;;;1.20;1.00;;;20.40;62.30;;;;;;6291559;28;20017;-70
2022/10/28 02:04:24;;;;;;;1.95;1.33;;;20.40;62.20;;;;;;6290867;28;20032;-70
2022/10/28 02:07:25;;;;;;;3.55;1.23;;;20.40;62.30;;;;;;6291381;28;20395;-69
2022/10/28 02:10:35;;;;;;;0.90;0.80;;;20.40;62.30;;;;;;6291660;28;20029;-69
2022/10/28 02:14:06;;;;;;;1.65;1.10;;;20.40;62.20;;;;;;6290930;28;20487;-69
2022/10/28 02:17:30;;;;;;;2.63;1.27;;;20.40;62.30;;;;;;6291648;28;20093;-69
2022/10/28 02:20:57;;;;;;;2.47;0.82;;;20.40;62.30;;;;;;6291500;28;20023;-69
2022/10/28 02:24:22;;;;;;;1.67;1.00;;;20.40;62.30;;;;;;6290583;28;20148;-70
2022/10/28 02:27:32;;;;;;;1.63;1.02;;;20.40;62.30;;;;;;6291218;28;20032;-70
2022/10/28 02:30:58;;;;;;;1.13;0.93;;;20.40;62.30;;;;;;6291611;28;20031;-70
2022/10/28 02:34:14;;;;;;;1.30;0.98;;;20.40;62.40;;;;;;6290935;28;20032;-70
2022/10/28 02:37:21;;;;;;;1.40;1.00;;;20.40;62.40;;;;;;6293550;28;20033;-69
2022/10/28 02:40:26;;;;;;;0.90;0.80;;;20.40;62.40;;;;;;6295800;28;20070;-70
2022/10/28 02:43:31;;;;;;;1.30;1.05;;;20.40;62.30;;;;;;6295903;28;20028;-70
2022/10/28 02:46:34;;;;;;;1.30;0.90;;;20.40;62.30;;;;;;6295285;28;20560;-69
2022/10/28 02:49:38;;;;;;;1.33;0.90;;;20.40;62.30;;;;;;6295269;28;20395;-70
2022/10/28 02:52:41;;;;;;;1.17;0.93;;;20.40;62.30;;;;;;6270209;28;20096;-69
2022/10/28 02:55:44;;;;;;;1.77;1.20;;;20.30;62.20;;;;;;6277457;28;20071;-69
2022/10/28 02:58:45;;;;;;;1.55;0.95;;;20.40;62.30;;;;;;6294935;28;20165;-69
2022/10/28 03:01:45;;;;;;;1.50;1.10;;;20.40;62.30;;;;;;6294816;28;20111;-70
2022/10/28 03:04:46;;;;;;;0.85;0.82;;;20.40;62.30;;;;;;6294780;28;20146;-69
2022/10/28 03:07:46;;;;;;;1.13;0.88;;;20.40;62.40;;;;;;6294806;28;20024;-69
2022/10/28 03:10:48;;;;;;;0.80;0.75;;;20.40;62.30;;;;;;6295064;28;20051;-71
2022/10/28 03:13:48;;;;;;;1.38;1.00;;;20.40;62.20;;;;;;6294314;28;20060;-70
2022/10/28 03:16:49;;;;;;;1.40;0.80;;;20.40;62.30;;;;;;6294720;28;20493;-69
2022/10/28 03:19:49;;;;;;;1.50;0.93;;;20.40;62.20;;;;;;6294398;28;20036;-70
2022/10/28 03:22:50;;;;;;;1.10;0.98;;;20.40;62.30;;;;;;6294350;28;20029;-70
2022/10/28 03:25:51;;;;;;;1.15;1.05;;;20.40;62.30;;;;;;6294720;28;20024;-70
2022/10/28 03:28:51;;;;;;;1.10;0.75;;;20.40;62.20;;;;;;6294751;28;20640;-70
2022/10/28 03:31:52;;;;;;;0.90;0.75;;;20.40;62.30;;;;;;6294776;28;20052;-70
2022/10/28 03:34:52;;;;;;;1.52;1.00;;;20.40;62.30;;;;;;6294024;28;20495;-70
2022/10/28 03:37:53;;;;;;;0.90;0.80;;;20.40;62.30;;;;;;6294202;28;20024;-70
2022/10/28 03:40:53;;;;;;;1.20;0.90;;;20.40;62.30;;;;;;6293933;28;20074;-69
2022/10/28 03:43:54;;;;;;;1.17;1.02;;;20.40;62.30;;;;;;6294074;28;20565;-70
2022/10/28 03:46:55;;;;;;;1.00;0.90;;;20.40;62.40;;;;;;6292651;28;20021;-69
2022/10/28 03:49:55;;;;;;;2.47;1.00;;;20.40;62.30;;;;;;6293707;28;20115;-70
2022/10/28 03:52:56;;;;;;;1.60;1.10;;;20.40;62.40;;;;;;6294161;28;20028;-71
2022/10/28 03:55:59;;;;;;;1.38;1.00;;;20.40;62.30;;;;;;6293218;28;20064;-70
2022/10/28 03:58:59;;;;;;;1.10;1.00;;;20.30;62.10;;;;;;6293854;28;20021;-69
2022/10/28 04:02:00;;;;;;;1.55;1.00;;;20.40;62.20;;;;;;6296230;28;20025;-69
2022/10/28 04:05:01;;;;;;;1.55;1.02;;;20.40;62.20;;;;;;6293963;28;20085;-69
2022/10/28 04:08:01;;;;;;;2.30;0.90;;;20.40;62.20;;;;;;6293126;28;20472;-69
2022/10/28 04:11:02;;;;;;;1.17;0.93;;;20.40;62.10;;;;;;6293624;28;20111;-70
2022/10/28 04:14:03;;;;;;;1.13;0.85;;;20.40;62.10;;;;;;6292898;28;20032;-69
2022/10/28 04:17:03;;;;;;;1.38;0.90;;;20.40;62.20;;;;;;6293778;28;20411;-69
2022/10/28 04:20:04;;;;;;;1.38;1.00;;;20.40;62.10;;;;;;6292833;28;20028;-69
2022/10/28 04:23:05;;;;;;;1.42;1.00;;;20.40;62.20;;;;;;6293502;28;20433;-69
2022/10/28 04:26:06;;;;;;;2.03;0.90;;;20.40;62.20;;;;;;6292189;28;20020;-69
2022/10/28 04:29:06;;;;;;;1.52;0.90;;;20.40;62.20;;;;;;6292425;28;20021;-69
2022/10/28 04:32:07;;;;;;;0.88;0.80;;;20.40;62.20;;;;;;6293123;28;20055;-69
2022/10/28 04:35:09;;;;;;;1.17;0.95;;;20.40;62.10;;;;;;6292690;28;20368;-69
2022/10/28 04:38:11;;;;;;;0.95;0.80;;;20.40;62.20;;;;;;6292617;28;20033;-69
2022/10/28 04:41:13;;;;;;;1.10;0.95;;;20.40;62.10;;;;;;6292746;28;20031;-70
2022/10/28 04:44:14;;;;;;;1.02;0.90;;;20.40;62.00;;;;;;6292832;28;20111;-69
2022/10/28 04:47:15;;;;;;;0.80;0.77;;;20.40;62.10;;;;;;6292407;28;20496;-69
2022/10/28 04:50:16;;;;;;;1.23;1.00;;;20.40;62.00;;;;;;6292573;28;20248;-69
2022/10/28 04:53:17;;;;;;;1.05;0.90;;;20.40;62.10;;;;;;6292535;28;20483;-70
2022/10/28 04:56:17;;;;;;;1.30;0.95;;;20.40;62.10;;;;;;6291682;28;20368;-70
2022/10/28 05:03:15;;;;;;;1.08;0.93;;;20.40;62.20;;;;;;6290885;28;20036;-69
2022/10/28 05:06:16;;;;;;;1.10;0.77;;;20.40;62.00;;;;;;6292051;28;20490;-70
2022/10/28 05:09:16;;;;;;;1.20;0.93;;;20.40;62.10;;;;;;6291904;28;20039;-69
2022/10/28 05:12:17;;;;;;;0.90;0.70;;;20.40;62.00;;;;;;6291953;28;20032;-70
2022/10/28 05:15:17;;;;;;;0.90;0.70;;;20.40;62.10;;;;;;6291643;28;20457;-69
2022/10/28 05:18:18;;;;;;;1.50;0.90;;;20.40;62.10;;;;;;6291971;28;20020;-69
2022/10/28 05:21:18;;;;;;;0.60;0.60;;;20.40;62.00;;;;;;6291679;28;20033;-70
2022/10/28 05:24:19;;;;;;;3.10;0.90;;;20.40;62.00;;;;;;6292067;28;20071;-69
2022/10/28 05:27:20;;;;;;;1.20;0.88;;;20.40;62.00;;;;;;6291645;28;20032;-70
2022/10/28 05:30:20;;;;;;;1.13;0.73;;;20.40;62.00;;;;;;6291842;28;20096;-70
2022/10/28 05:33:21;;;;;;;1.02;0.80;;;20.40;62.10;;;;;;6291860;28;20029;-70
2022/10/28 05:36:22;;;;;;;1.33;1.10;;;20.40;62.00;;;;;;6291911;28;20099;-70
2022/10/28 05:39:22;;;;;;;0.70;0.70;;;20.40;62.00;;;;;;6292197;28;20494;-69
2022/10/28 05:42:23;;;;;;;1.25;0.75;;;20.40;62.00;;;;;;6291976;28;20027;-69
2022/10/28 05:45:24;;;;;;;1.15;0.82;;;20.40;62.00;;;;;;6291448;28;20028;-69
2022/10/28 05:48:24;;;;;;;2.47;0.90;;;20.40;62.00;;;;;;6291795;28;20203;-70
2022/10/28 05:51:25;;;;;;;1.00;0.77;;;20.40;62.00;;;;;;6291065;28;20487;-70
2022/10/28 05:54:25;;;;;;;1.50;0.80;;;20.40;61.90;;;;;;6291308;28;20071;-69
2022/10/28 05:57:26;;;;;;;0.85;0.68;;;20.40;62.00;;;;;;6291212;28;20070;-70
2022/10/28 06:00:27;;;;;;;1.30;0.80;;;20.40;62.00;;;;;;6285795;28;20032;-69
2022/10/28 06:03:28;;;;;;;1.25;1.08;;;20.40;62.00;;;;;;6278543;28;20027;-69
2022/10/28 06:06:29;;;;;;;0.90;0.70;;;20.40;61.90;;;;;;6293458;28;20028;-70
2022/10/28 06:09:30;;;;;;;1.02;0.80;;;20.40;62.00;;;;;;6289894;28;20056;-69
2022/10/28 06:12:30;;;;;;;4.35;1.10;;;20.40;62.10;;;;;;6298176;28;20464;-69
2022/10/28 06:15:31;;;;;;;1.00;0.90;;;20.40;62.00;;;;;;6298159;28;20021;-70
2022/10/28 06:18:32;;;;;;;1.13;0.90;;;20.40;62.00;;;;;;6298519;28;20106;-69
2022/10/28 06:21:33;;;;;;;1.25;0.80;;;20.40;62.00;;;;;;6297862;28;20108;-68
2022/10/28 06:24:34;;;;;;;1.20;0.93;;;20.40;61.90;;;;;;6298431;28;20426;-69
2022/10/28 06:27:34;;;;;;;1.20;0.98;;;20.40;62.00;;;;;;6297862;28;20021;-69
2022/10/28 06:30:35;;;;;;;0.93;0.80;;;20.40;62.10;;;;;;6298711;28;20029;-68
2022/10/28 06:33:35;;;;;;;1.33;1.00;;;20.40;62.90;;;;;;6297995;28;20030;-68
2022/10/28 06:36:36;;;;;;;0.85;0.70;;;20.40;62.00;;;;;;6298251;28;20033;-69
2022/10/28 06:39:38;;;;;;;0.90;0.77;;;20.40;62.00;;;;;;6298058;28;20044;-69
2022/10/28 06:42:39;;;;;;;1.20;0.80;;;20.40;62.00;;;;;;6297571;28;20029;-69
2022/10/28 06:45:39;;;;;;;1.50;0.90;;;20.40;62.00;;;;;;6297641;28;20094;-69
2022/10/28 06:48:40;;;;;;;1.13;0.90;;;20.40;61.90;;;;;;6297494;28;20475;-70
2022/10/28 06:51:40;;;;;;;0.75;0.70;;;20.40;62.00;;;;;;6297239;28;20052;-69
2022/10/28 06:54:42;;;;;;;0.98;0.80;;;20.40;62.00;;;;;;6297205;28;20479;-70
2022/10/28 06:57:43;;;;;;;0.98;0.90;;;20.40;62.00;;;;;;6297033;28;20025;-69
2022/10/28 07:00:43;;;;;;;1.00;0.70;;;20.40;62.10;;;;;;6297479;28;20032;-69
2022/10/28 07:03:44;;;;;;;1.50;0.93;;;20.40;62.20;;;;;;6297403;28;20024;-69
2022/10/28 07:06:45;;;;;;;2.97;1.40;;;20.30;62.30;;;;;;6296786;28;20483;-70
2022/10/28 07:09:45;;;;;;;7.05;1.10;;;20.40;62.10;;;;;;6297321;28;20031;-71
2022/10/28 07:12:46;;;;;;;1.35;1.00;;;20.40;62.20;;;;;;6296617;28;20036;-70
2022/10/28 07:15:54;;;;;;;2.55;1.20;;;20.40;62.20;;;;;;6296883;28;20036;-69
2022/10/28 07:18:54;;;;;;;1.95;1.30;;;20.40;62.30;;;;;;6296739;28;20029;-69
2022/10/28 07:21:55;;;;;;;3.42;1.35;;;20.40;62.10;;;;;;6296642;28;20513;-69
2022/10/28 07:24:56;;;;;;;3.67;1.50;;;20.40;62.00;;;;;;6296641;28;20016;-70
2022/10/28 07:27:57;;;;;;;1.63;1.10;;;20.40;62.00;;;;;;6296173;28;20024;-69
2022/10/28 07:31:01;;;;;;;2.20;1.25;;;20.40;62.00;;;;;;6296239;28;20457;-69
2022/10/28 07:34:02;;;;;;;2.00;1.30;;;20.40;61.90;;;;;;6312533;28;20099;-69
2022/10/28 07:37:04;;;;;;;1.30;1.13;;;20.40;61.90;;;;;;6296666;28;20028;-70
2022/10/28 07:40:05;;;;;;;4.95;1.42;;;20.40;61.80;;;;;;6296705;28;20024;-70
2022/10/28 07:43:06;;;;;;;2.00;1.20;;;20.40;61.80;;;;;;6296574;28;20028;-70
2022/10/28 07:46:07;;;;;;;2.67;1.33;;;20.40;61.80;;;;;;6296683;28;20027;-69
2022/10/28 07:49:08;;;;;;;1.58;1.10;;;20.40;61.90;;;;;;6296488;28;20021;-70
2022/10/28 07:52:09;;;;;;;3.90;1.33;;;20.40;61.90;;;;;;6295767;28;20458;-69
2022/10/28 07:55:10;;;;;;;1.92;1.17;;;20.40;61.90;;;;;;6295890;28;20040;-69
2022/10/28 07:58:11;;;;;;;3.20;1.38;;;20.40;62.00;;;;;;6295693;28;20027;-69
2022/10/28 08:01:14;;;;;;;1.90;1.20;;;20.40;61.90;;;;;;6294993;28;20028;-68
2022/10/28 08:04:14;;;;;;;2.40;1.33;;;20.40;62.00;;;;;;6295411;28;20016;-69
2022/10/28 08:07:15;;;;;;;2.55;1.48;;;20.40;61.80;;;;;;6295413;28;20031;-70
2022/10/28 08:10:16;;;;;;;2.05;1.27;;;20.40;61.90;;;;;;6295903;28;20487;-69
2022/10/28 08:13:16;;;;;;;3.17;1.30;;;20.40;61.90;;;;;;6295161;28;20021;-70
2022/10/28 08:16:18;;;;;;;1.75;1.20;;;20.40;62.00;;;;;;6294603;28;20028;-69
2022/10/28 08:19:18;;;;;;;1.60;1.33;;;20.40;62.10;;;;;;6295839;28;20032;-70
2022/10/28 08:22:19;;;;;;;1.45;1.10;;;20.40;62.00;;;;;;6295358;28;20031;-70
2022/10/28 08:25:19;;;;;;;3.05;1.33;;;20.40;62.00;;;;;;6295090;28;20424;-70
2022/10/28 08:28:21;;;;;;;2.15;1.30;;;20.40;62.00;;;;;;6294541;28;20024;-69
2022/10/28 08:31:21;;;;;;;2.28;1.10;;;20.40;62.00;;;;;;6295147;28;20048;-69
2022/10/28 08:34:22;;;;;;;1.77;1.20;;;20.40;62.00;;;;;;6294146;28;20028;-69
2022/10/28 08:37:23;;;;;;;4.03;1.42;;;20.40;62.20;;;;;;6295154;28;20024;-69
2022/10/28 08:40:40;;;;;;;2.55;1.13;;;20.40;62.20;;;;;;6295099;28;20493;-69
2022/10/28 08:44:00;;;;;;;1.50;1.15;;;20.40;62.20;;;;;;6294992;28;20074;-70
2022/10/28 08:47:18;;;;;;;2.85;1.35;;;20.40;62.00;;;;;;6294363;28;20620;-70
2022/10/28 08:50:22;;;;;;;1.90;1.30;;;20.30;62.00;;;;;;6294760;28;20084;-69
2022/10/28 08:53:43;;;;;;;1.85;1.20;;;20.40;62.20;;;;;;6294642;28;20017;-70
2022/10/28 08:56:46;;;;;;;1.30;0.88;;;20.40;62.20;;;;;;6294365;28;20478;-70
2022/10/28 08:59:50;;;;;;;1.92;1.05;;;20.40;62.20;;;;;;6294275;28;20021;-69
2022/10/28 09:03:10;;;;;;;1.30;1.05;;;20.40;62.20;;;;;;6294646;28;20078;-70
2022/10/28 09:06:10;;;;;;;1.48;0.88;;;20.40;62.20;;;;;;6294261;28;20074;-70
2022/10/28 09:09:19;;;;;;;1.63;1.00;;;20.40;62.20;;;;;;6294965;28;20028;-70
2022/10/28 09:12:56;;;;;;;1.80;1.10;;;20.40;62.20;;;;;;6294062;28;20028;-70
2022/10/28 09:16:05;;;;;;;4.25;1.00;;;20.30;62.00;;;;;;6294188;28;20098;-71
2022/10/28 09:19:34;;;;;;;1.45;1.02;;;20.40;62.30;;;;;;6269259;28;20029;-69
2022/10/28 09:22:49;;;;;;;1.73;1.00;;;20.30;62.10;;;;;;6269539;28;20051;-69
2022/10/28 09:26:15;;;;;;;1.40;1.00;;;20.40;62.30;;;;;;6269102;28;20035;-69
2022/10/28 09:29:35;;;;;;;;;;;20.30;62.20;;;;;;6294336;28;20464;-70
2022/10/28 09:33:02;;;;;;;0.68;0.55;;;20.40;62.30;;;;;;6293895;28;19908;-69
2022/10/28 09:36:05;;;;;;;1.73;1.20;;;20.40;62.40;;;;;;6293580;28;20396;-69
2022/10/28 09:39:19;;;;;;;1.67;0.98;;;20.40;62.40;;;;;;6293933;28;20021;-69
2022/10/28 09:42:29;;;;;;;1.20;0.90;;;20.40;62.40;;;;;;6293892;28;20055;-69
2022/10/28 09:45:32;;;;;;;2.25;1.27;;;20.40;62.40;;;;;;6295056;28;20024;-69
2022/10/28 09:48:39;;;;;;;1.50;1.10;;;20.30;62.30;;;;;;6298926;28;20043;-70
2022/10/28 09:51:48;;;;;;;2.10;1.20;;;20.40;62.40;;;;;;6298519;28;20144;-69
2022/10/28 09:54:51;;;;;;;1.58;1.05;;;20.30;63.10;;;;;;6299014;28;20502;-69
2022/10/28 09:57:52;;;;;;;1.25;0.90;;;20.40;62.40;;;;;;6298351;28;20017;-69
2022/10/28 10:00:52;;;;;;;2.63;1.20;;;20.40;62.40;;;;;;6298785;28;20048;-69
2022/10/28 10:03:53;;;;;;;2.08;1.10;;;20.40;62.50;;;;;;6298411;28;20028;-69
2022/10/28 10:07:01;;;;;;;1.73;1.00;;;20.40;62.40;;;;;;6299058;28;20032;-69
2022/10/28 10:10:15;;;;;;;1.77;1.13;;;20.30;62.30;;;;;;6298491;28;20192;-69
2022/10/28 10:13:20;;;;;;;1.50;1.00;;;20.40;62.40;;;;;;6298248;28;20028;-69
2022/10/28 10:16:40;;;;;;;1.88;1.15;;;20.40;63.30;;;;;;6298551;28;20028;-70
2022/10/28 10:19:59;;;;;;;1.20;0.85;;;20.40;62.40;;;;;;6298677;28;20467;-69
2022/10/28 10:22:59;;;;;;;1.65;1.00;;;20.40;62.30;;;;;;6297667;28;20039;-70
2022/10/28 10:26:04;;;;;;;1.13;0.82;;;20.40;62.40;;;;;;6298180;28;20099;-69
2022/10/28 10:29:10;;;;;;;1.70;1.08;;;20.40;62.40;;;;;;6297781;28;20024;-70
2022/10/28 10:32:23;;;;;;;1.02;0.93;;;20.40;62.40;;;;;;6297895;28;20111;-69
2022/10/28 10:35:26;;;;;;;1.05;0.85;;;20.40;62.40;;;;;;6273319;28;20108;-70
2022/10/28 10:38:28;;;;;;;1.42;1.10;;;20.40;62.30;;;;;;6272860;28;20078;-70
2022/10/28 10:41:36;;;;;;;1.27;1.10;;;20.40;62.30;;;;;;6273364;28;20031;-69
2022/10/28 10:44:37;;;;;;;1.58;0.95;;;20.40;62.30;;;;;;6290815;28;20035;-69
2022/10/28 10:47:37;;;;;;;1.52;0.90;;;20.40;62.30;;;;;;6297342;28;20036;-70
2022/10/28 10:50:39;;;;;;;1.77;1.10;;;20.40;62.30;;;;;;6297726;28;20080;-70
2022/10/28 10:53:39;;;;;;;1.23;1.00;;;20.40;63.10;;;;;;6298347;28;20024;-69
2022/10/28 10:56:40;;;;;;;1.75;1.13;;;20.40;62.30;;;;;;6297483;28;20039;-70
2022/10/28 10:59:45;;;;;;;1.23;1.05;;;20.40;62.30;;;;;;6297140;28;20873;-70
2022/10/28 11:02:46;;;;;;;1.52;1.00;;;20.40;62.30;;;;;;6296826;28;20515;-70
2022/10/28 11:05:54;;;;;;;1.33;0.90;;;20.30;62.20;;;;;;6297205;28;20116;-70
2022/10/28 11:09:02;;;;;;;2.75;1.30;;;20.40;62.30;;;;;;6297001;28;20016;-69
2022/10/28 11:12:27;;;;;;;2.20;1.00;;;20.40;62.30;;;;;;6297234;28;20044;-70
2022/10/28 11:15:31;;;;;;;2.78;1.30;;;20.40;62.30;;;;;;6296798;28;20137;-69
2022/10/28 11:18:44;;;;;;;0.80;0.70;;;20.40;62.30;;;;;;6296801;28;20437;-69
2022/10/28 11:21:55;;;;;;;1.67;1.13;;;20.40;62.30;;;;;;6297106;28;20021;-69
2022/10/28 11:24:58;;;;;;;1.33;1.00;;;20.40;62.30;;;;;;6296562;28;20035;-70
2022/10/28 11:28:08;;;;;;;2.20;1.00;;;20.40;62.30;;;;;;6297048;28;20039;-70
2022/10/28 11:31:34;;;;;;;1.10;0.93;;;20.40;62.30;;;;;;6296479;28;20017;-70
2022/10/28 11:34:43;;;;;;;1.58;1.15;;;20.40;62.30;;;;;;6295204;28;20063;-70
2022/10/28 11:38:32;;;;;;;1.88;1.40;;;20.40;62.30;;;;;;6273423;28;20024;-69
2022/10/28 11:42:07;;;;;;;1.10;0.80;;;20.30;62.30;;;;;;6208400;28;20068;-70
2022/10/28 11:45:25;;;;;;;0.93;0.63;;;20.30;62.30;;;;;;6215522;28;20614;-69
2022/10/28 11:48:40;;;;;;;1.52;0.88;;;20.40;62.50;;;;;;6275587;28;20060;-70
2022/10/28 11:51:54;;;;;;;1.30;0.82;;;20.40;62.50;;;;;;6280625;28;20040;-69
2022/10/28 11:55:01;;;;;;;2.28;0.98;;;20.40;62.50;;;;;;6284805;28;20045;-70
2022/10/28 11:58:24;;;;;;;1.20;1.00;;;20.40;62.50;;;;;;6283232;28;20036;-70
2022/10/28 12:01:48;;;;;;;1.23;0.80;;;20.40;62.50;;;;;;6282503;28;20021;-70
2022/10/28 12:04:55;;;;;;;2.10;1.10;;;20.40;62.40;;;;;;6274747;28;20033;-70
2022/10/28 12:08:12;;;;;;;1.17;1.00;;;20.40;62.40;;;;;;6282544;28;20028;-69
2022/10/28 12:11:12;;;;;;;1.83;1.00;;;20.30;62.30;;;;;;6282805;28;20036;-69
2022/10/28 12:14:31;;;;;;;1.30;1.00;;;20.40;62.40;;;;;;6279282;28;20104;-71
2022/10/28 12:17:43;;;;;;;1.35;0.88;;;20.40;62.50;;;;;;6294284;28;20028;-70
2022/10/28 12:21:01;;;;;;;1.67;1.00;;;20.30;62.30;;;;;;6295156;28;20056;-69
2022/10/28 12:24:05;;;;;;;1.63;0.90;;;20.40;62.50;;;;;;6288944;28;20085;-70
2022/10/28 12:27:15;;;;;;;1.47;0.90;;;20.30;62.40;;;;;;6294223;28;20361;-70
2022/10/28 12:30:23;;;;;;;1.50;1.00;;;20.40;62.50;;;;;;6293500;28;20386;-70
2022/10/28 12:33:38;;;;;;;1.90;0.80;;;20.40;62.50;;;;;;6294429;28;20111;-70
2022/10/28 12:36:56;;;;;;;0.93;0.70;;;20.40;62.60;;;;;;6294269;28;20054;-68
2022/10/28 12:40:07;;;;;;;0.80;0.80;;;20.40;62.60;;;;;;6294337;28;20261;-70
2022/10/28 12:43:17;;;;;;;1.33;0.90;;;20.40;62.50;;;;;;6294557;28;20048;-69
2022/10/28 12:46:36;;;;;;;4.63;0.90;;;20.30;62.50;;;;;;6294013;28;20021;-70
2022/10/28 12:49:50;;;;;;;1.08;0.88;;;20.30;62.50;;;;;;6290881;28;20063;-69
2022/10/28 12:53:27;;;;;;;1.50;1.10;;;20.30;62.50;;;;;;6291371;28;20024;-69
2022/10/28 12:56:47;;;;;;;1.50;0.90;;;20.40;62.60;;;;;;6292343;28;20082;-70
2022/10/28 13:00:14;;;;;;;2.10;1.15;;;20.30;62.50;;;;;;6290255;28;20048;-68
2022/10/28 13:03:15;;;;;;;1.88;0.98;;;20.40;62.60;;;;;;6286564;28;20039;-70
2022/10/28 13:06:44;;;;;;;0.80;0.80;;;20.30;62.50;;;;;;6290737;28;20086;-69
2022/10/28 13:10:06;;;;;;;0.95;0.82;;;20.30;62.50;;;;;;6291798;28;20086;-69
2022/10/28 13:13:51;;;;;;;3.60;0.82;;;20.30;62.50;;;;;;6288430;28;20029;-70
2022/10/28 13:17:16;;;;;;;1.15;0.95;;;20.40;62.60;;;;;;6287105;28;20056;-70
2022/10/28 13:20:51;;;;;;;1.17;0.70;;;20.40;62.70;;;;;;6293042;28;20071;-69
2022/10/28 13:24:16;;;;;;;1.48;0.82;;;20.40;62.70;;;;;;6293247;28;20034;-69
2022/10/28 13:27:18;;;;;;;1.85;1.02;;;20.40;62.40;;;;;;6292056;28;20063;-70
2022/10/28 13:30:21;;;;;;;2.63;1.27;;;20.50;62.40;;;;;;6291445;28;20037;-70
2022/10/28 13:33:27;;;;;;;1.48;0.90;;;20.40;62.30;;;;;;6294188;28;20391;-70
2022/10/28 13:36:37;;;;;;;4.18;1.20;;;20.40;62.50;;;;;;6292941;28;20051;-70
2022/10/28 13:39:42;;;;;;;1.98;1.00;;;20.40;62.50;;;;;;6292321;28;20507;-71
2022/10/28 13:42:47;;;;;;;3.30;1.30;;;20.40;62.40;;;;;;6294136;28;20024;-70
2022/10/28 13:45:53;;;;;;;3.92;1.55;;;20.40;62.50;;;;;;6293916;28;20388;-70
2022/10/28 13:49:23;;;;;;;2.92;1.45;;;20.40;62.60;;;;;;6289964;28;20032;-70
2022/10/28 13:52:24;;;;;;;2.67;1.20;;;20.40;62.50;;;;;;6284556;28;20032;-70
2022/10/28 13:55:39;;;;;;;2.35;1.15;;;20.40;62.60;;;;;;6293754;28;20044;-71
2022/10/28 13:58:50;;;;;;;3.80;1.38;;;20.40;62.60;;;;;;6282572;28;20036;-70
2022/10/28 14:01:57;;;;;;;2.40;1.20;;;20.40;62.60;;;;;;6280210;28;20024;-70
2022/10/28 14:05:01;;;;;;;5.03;1.20;;;20.40;62.60;;;;;;6294083;28;20665;-70
2022/10/28 14:08:05;;;;;;;2.53;1.30;;;20.40;62.60;;;;;;6293612;28;20119;-71
2022/10/28 14:11:08;;;;;;;2.28;1.00;;;20.40;62.70;;;;;;6294388;28;20032;-70
2022/10/28 14:14:15;;;;;;;3.53;1.45;;;20.40;62.70;;;;;;6294203;28;20467;-70
2022/10/28 14:17:21;;;;;;;2.92;1.30;;;20.40;62.70;;;;;;6293882;28;20049;-70
2022/10/28 14:20:39;;;;;;;2.75;1.42;;;20.40;63.60;;;;;;6294199;28;20024;-70
2022/10/28 14:23:43;;;;;;;2.45;1.40;;;20.40;62.70;;;;;;6294257;28;20048;-70
2022/10/28 14:27:02;;;;;;;3.50;1.27;;;20.30;62.60;;;;;;6294015;28;20383;-70
2022/10/28 14:30:18;;;;;;;3.47;1.45;;;20.40;62.70;;;;;;6269259;28;20036;-70
2022/10/28 14:33:19;;;;;;;3.10;1.58;;;20.40;62.70;;;;;;6290400;28;20503;-70
2022/10/28 14:36:32;;;;;;;2.63;1.13;;;20.40;62.70;;;;;;6297341;28;20037;-70
2022/10/28 14:40:25;;;;;;;1.73;1.05;;;20.40;62.70;;;;;;6295935;28;20398;-69
2022/10/28 14:43:42;;;;;;;4.72;1.45;;;20.40;62.70;;;;;;6295202;28;20060;-69
2022/10/28 14:46:45;;;;;;;1.60;1.10;;;20.30;62.60;;;;;;6295991;28;20063;-69
2022/10/28 14:50:03;;;;;;;2.72;1.50;;;20.40;62.80;;;;;;6295734;28;20423;-70
2022/10/28 14:53:22;;;;;;;3.03;1.38;;;20.40;62.70;;;;;;6295985;28;20020;-70
2022/10/28 14:56:29;;;;;;;2.67;1.00;;;20.40;63.70;;;;;;6296045;28;20323;-70
2022/10/28 14:59:39;;;;;;;2.00;1.20;;;20.30;63.50;;;;;;6294876;28;20020;-69
2022/10/28 15:02:39;;;;;;;2.80;1.50;;;20.40;62.80;;;;;;6294836;28;20033;-70
2022/10/28 15:05:40;;;;;;;2.38;1.60;;;20.30;62.60;;;;;;6286110;28;20031;-70
2022/10/28 15:08:41;;;;;;;3.03;1.38;;;20.40;62.70;;;;;;6295721;28;20024;-70
2022/10/28 15:11:58;;;;;;;1.70;1.10;;;20.40;62.80;;;;;;6295618;28;20376;-70
2022/10/28 15:14:59;;;;;;;2.80;1.33;;;20.40;62.70;;;;;;6290599;28;20031;-69
2022/10/28 15:18:00;;;;;;;2.60;1.05;;;20.40;62.80;;;;;;6294914;28;20387;-70
2022/10/28 15:21:08;;;;;;;2.78;1.50;;;20.40;62.80;;;;;;6295865;28;20119;-70
2022/10/28 15:24:12;;;;;;;3.70;1.30;;;20.40;62.80;;;;;;6292860;28;20360;-70
2022/10/28 15:27:14;;;;;;;2.58;1.40;;;20.40;62.80;;;;;;6294949;28;20055;-71
2022/10/28 15:30:17;;;;;;;2.60;1.20;;;20.40;62.70;;;;;;6294512;28;20387;-70
2022/10/28 15:33:27;;;;;;;3.05;1.42;;;20.40;62.80;;;;;;6295507;28;20028;-70
2022/10/28 15:36:27;;;;;;;3.72;1.42;;;20.40;62.70;;;;;;6270489;28;20059;-70
2022/10/28 15:39:28;;;;;;;2.05;1.13;;;20.30;62.70;;;;;;6286283;28;20020;-70
2022/10/28 15:42:30;;;;;;;2.30;1.33;;;20.40;62.70;;;;;;6293390;28;20028;-69
2022/10/28 15:45:34;;;;;;;3.35;1.70;;;20.40;62.80;;;;;;6294206;28;20479;-70
2022/10/28 15:48:34;;;;;;;2.25;1.50;;;20.40;62.80;;;;;;6295175;28;20569;-70
2022/10/28 15:51:35;;;;;;;2.17;1.20;;;20.40;62.80;;;;;;6309872;28;20052;-70
2022/10/28 15:54:36;;;;;;;2.55;1.20;;;20.40;62.80;;;;;;6294683;28;20040;-70
2022/10/28 15:57:48;;;;;;;2.78;1.40;;;20.40;62.70;;;;;;6294515;28;20071;-70
2022/10/28 16:00:53;;;;;;;2.97;1.20;;;20.30;62.70;;;;;;6286218;28;20033;-69
2022/10/28 16:03:54;;;;;;;5.53;1.42;;;20.40;62.80;;;;;;6294386;28;20405;-70
2022/10/28 16:06:56;;;;;;;3.80;1.40;;;20.40;62.90;;;;;;6294037;28;20040;-70
2022/10/28 16:09:57;;;;;;;2.15;1.00;;;20.40;62.80;;;;;;6294834;28;20016;-70
2022/10/28 16:12:58;;;;;;;3.55;1.70;;;20.40;62.80;;;;;;6294157;28;20027;-69
2022/10/28 16:16:04;;;;;;;2.08;1.00;;;20.40;62.80;;;;;;6292958;28;20036;-70
2022/10/28 16:19:14;;;;;;;2.05;1.10;;;20.40;62.90;;;;;;6292061;28;20509;-69